createdAt,value
2023-01-13T00:01:46.426Z,100169.83
2023-01-13T00:04:13.222Z,100170.55
2023-01-13T00:06:39.924Z,100169.15
2023-01-13T00:09:06.903Z,100166.80
2023-01-13T00:11:35.017Z,100168.20
2023-01-13T00:14:01.573Z,100167.65
2023-01-13T00:16:28.332Z,100166.00
2023-01-13T00:18:55.164Z,100165.62
2023-01-13T00:21:23.927Z,100165.08
2023-01-13T00:23:55.013Z,100168.59
2023-01-13T00:26:24.736Z,100168.17
2023-01-13T00:28:56.473Z,100170.42
2023-01-13T00:31:23.840Z,100168.30
2023-01-13T00:33:50.653Z,100163.52
2023-01-13T00:36:19.872Z,100163.12
2023-01-13T00:38:47.289Z,100158.61
2023-01-13T00:41:24.990Z,100160.95
2023-01-13T00:43:51.865Z,100157.70
2023-01-13T00:46:20.598Z,100139.52
2023-01-13T00:48:48.172Z,100154.14
2023-01-13T00:51:20.231Z,100148.99
2023-01-13T00:53:49.973Z,100151.32
2023-01-13T00:56:38.620Z,100150.34
2023-01-13T00:59:09.976Z,100149.98
2023-01-13T01:01:37.330Z,100152.77
2023-01-13T01:04:04.544Z,100152.22
2023-01-13T01:06:31.609Z,100150.17
2023-01-13T01:08:58.395Z,100146.59
2023-01-13T01:11:27.773Z,100147.11
2023-01-13T01:13:56.583Z,100140.42
2023-01-13T01:16:25.939Z,100137.68
2023-01-13T01:18:53.583Z,100137.92
2023-01-13T01:21:22.137Z,100130.96
2023-01-13T01:23:48.985Z,100131.00
2023-01-13T01:26:24.718Z,100124.38
2023-01-13T01:28:52.640Z,100125.95
2023-01-13T01:31:31.714Z,100121.50
2023-01-13T01:34:00.066Z,100119.30
2023-01-13T01:36:30.597Z,100107.63
2023-01-13T01:38:59.092Z,100106.77
2023-01-13T01:41:29.891Z,100103.88
2023-01-13T01:43:59.963Z,100104.21
2023-01-13T01:46:48.128Z,100102.80
2023-01-13T01:49:19.990Z,100098.79
2023-01-13T01:51:53.268Z,100094.29
2023-01-13T01:54:27.565Z,100094.68
2023-01-13T01:56:54.980Z,100086.97
2023-01-13T01:59:22.960Z,100079.09
2023-01-13T02:01:49.927Z,100080.63
2023-01-13T02:04:32.620Z,100078.70
2023-01-13T02:07:00.884Z,100078.33
2023-01-13T02:09:29.884Z,100077.42
2023-01-13T02:12:15.559Z,100078.29
2023-01-13T02:14:43.187Z,100074.39
2023-01-13T02:17:28.829Z,100071.95
2023-01-13T02:20:13.565Z,100067.70
2023-01-13T02:23:05.464Z,100073.02
2023-01-13T02:26:06.854Z,100071.69
2023-01-13T02:28:59.805Z,100065.95
2023-01-13T02:31:43.415Z,100064.02
2023-01-13T02:34:28.552Z,100060.50
2023-01-13T02:37:03.404Z,100053.79
2023-01-13T02:39:38.040Z,100053.43
2023-01-13T02:42:49.879Z,100052.15
2023-01-13T02:45:46.012Z,100046.83
2023-01-13T02:48:14.879Z,100047.46
2023-01-13T02:50:47.975Z,100043.84
2023-01-13T02:53:21.368Z,100042.90
2023-01-13T02:55:51.849Z,100046.87
2023-01-13T02:58:24.601Z,100044.53
2023-01-13T03:00:51.790Z,100046.70
2023-01-13T03:03:19.205Z,100045.39
2023-01-13T03:05:49.496Z,100042.88
2023-01-13T03:08:33.311Z,100024.39
2023-01-13T03:11:07.962Z,100036.07
2023-01-13T03:14:08.017Z,100033.61
2023-01-13T03:16:47.209Z,100033.25
2023-01-13T03:19:26.062Z,100030.55
2023-01-13T03:21:59.973Z,100023.19
2023-01-13T03:24:42.567Z,100027.90
2023-01-13T03:27:17.388Z,100026.61
2023-01-13T03:29:51.756Z,100031.33
2023-01-13T03:32:32.575Z,100031.96
2023-01-13T03:35:03.632Z,100033.77
2023-01-13T03:37:35.395Z,100029.34
2023-01-13T03:40:08.462Z,100028.30
2023-01-13T03:42:40.274Z,100028.86
2023-01-13T03:45:15.412Z,100023.78
2023-01-13T03:47:50.108Z,100027.65
2023-01-13T03:50:35.241Z,100022.92
2023-01-13T03:53:17.676Z,100024.33
2023-01-13T03:55:49.915Z,100023.25
2023-01-13T03:58:32.208Z,100025.30
2023-01-13T04:01:05.058Z,100026.65
2023-01-13T04:03:45.314Z,100024.45
2023-01-13T04:06:26.350Z,100022.33
2023-01-13T04:09:01.284Z,100026.27
2023-01-13T04:11:33.713Z,100024.63
2023-01-13T04:14:03.336Z,100024.50
2023-01-13T04:16:31.233Z,100018.05
2023-01-13T04:18:57.983Z,100014.21
2023-01-13T04:21:25.065Z,100019.83
2023-01-13T04:23:51.702Z,100017.27
2023-01-13T04:26:19.317Z,100014.36
2023-01-13T04:28:46.311Z,100013.55
2023-01-13T04:31:13.024Z,99995.30
2023-01-13T04:33:39.963Z,100010.23
2023-01-13T04:36:07.293Z,100008.67
2023-01-13T04:38:34.331Z,100003.77
2023-01-13T04:41:01.051Z,100006.23
2023-01-13T04:43:27.845Z,100006.39
2023-01-13T04:45:54.575Z,100007.09
2023-01-13T04:48:21.409Z,100007.20
2023-01-13T04:50:48.531Z,100004.71
2023-01-13T04:53:15.300Z,100004.30
2023-01-13T04:55:43.995Z,100006.08
2023-01-13T04:58:10.863Z,100004.67
2023-01-13T05:00:38.165Z,100006.09
2023-01-13T05:03:05.649Z,100005.48
2023-01-13T05:05:32.570Z,100004.81
2023-01-13T05:07:59.446Z,100003.05
2023-01-13T05:10:26.920Z,100004.90
2023-01-13T05:13:12.450Z,100001.23
2023-01-13T05:15:59.215Z,100000.38
2023-01-13T05:18:28.887Z,99998.16
2023-01-13T05:20:55.538Z,99998.36
2023-01-13T05:23:40.894Z,99998.86
2023-01-13T05:26:08.145Z,100000.14
2023-01-13T05:28:34.910Z,99997.00
2023-01-13T05:31:01.829Z,99995.38
2023-01-13T05:33:28.746Z,99999.23
2023-01-13T05:35:55.435Z,100000.79
2023-01-13T05:38:22.084Z,100000.61
2023-01-13T05:41:07.619Z,100005.45
2023-01-13T05:43:34.726Z,100008.45
2023-01-13T05:46:05.114Z,100006.84
2023-01-13T05:48:34.700Z,100009.25
2023-01-13T05:51:03.363Z,100006.61
2023-01-13T05:53:30.482Z,100008.89
2023-01-13T05:55:57.524Z,100005.31
2023-01-13T05:58:25.795Z,100010.71
2023-01-13T06:00:53.488Z,100011.75
2023-01-13T06:03:20.443Z,100005.73
2023-01-13T06:05:47.768Z,100011.48
2023-01-13T06:08:14.716Z,100018.84
2023-01-13T06:10:41.359Z,100019.69
2023-01-13T06:13:08.423Z,100018.11
2023-01-13T06:15:35.207Z,100019.88
2023-01-13T06:18:03.831Z,100022.16
2023-01-13T06:20:30.864Z,100018.48
2023-01-13T06:22:58.846Z,100019.53
2023-01-13T06:25:32.858Z,100019.73
2023-01-13T06:28:00.233Z,100025.74
2023-01-13T06:30:30.698Z,100027.55
2023-01-13T06:33:01.355Z,100030.05
2023-01-13T06:35:34.312Z,100027.10
2023-01-13T06:38:07.025Z,100028.71
2023-01-13T06:40:34.652Z,100028.59
2023-01-13T06:43:16.140Z,100028.75
2023-01-13T06:45:54.872Z,100029.59
2023-01-13T06:48:34.766Z,100025.95
2023-01-13T06:51:03.310Z,100030.81
2023-01-13T06:53:30.532Z,100031.31
2023-01-13T06:55:57.371Z,100029.86
2023-01-13T06:58:24.265Z,100032.11
2023-01-13T07:00:51.140Z,100014.41
2023-01-13T07:03:19.227Z,100025.91
2023-01-13T07:05:54.227Z,100028.63
2023-01-13T07:08:22.671Z,100026.61
2023-01-13T07:10:50.640Z,100007.64
2023-01-13T07:13:36.411Z,100015.23
2023-01-13T07:16:06.041Z,100025.15
2023-01-13T07:18:34.346Z,100022.29
2023-01-13T07:21:06.958Z,100021.66
2023-01-13T07:23:55.323Z,100025.48
2023-01-13T07:26:22.375Z,99966.44
2023-01-13T07:28:49.047Z,100024.55
2023-01-13T07:31:18.473Z,100026.63
2023-01-13T07:33:45.675Z,100027.14
2023-01-13T07:36:13.832Z,100030.14
2023-01-13T07:38:43.803Z,100033.27
2023-01-13T07:41:33.698Z,100036.71
2023-01-13T07:44:04.357Z,100037.20
2023-01-13T07:46:32.291Z,100035.23
2023-01-13T07:48:59.736Z,100029.04
2023-01-13T07:51:26.737Z,100025.43
2023-01-13T07:53:53.463Z,100024.59
2023-01-13T07:56:20.289Z,100023.80
2023-01-13T07:58:50.487Z,100026.29
2023-01-13T08:01:19.928Z,100029.87
2023-01-13T08:03:46.933Z,100029.38
2023-01-13T08:06:14.468Z,100029.45
2023-01-13T08:08:41.062Z,100026.95
2023-01-13T08:11:08.748Z,100029.84
2023-01-13T08:13:35.891Z,100029.52
2023-01-13T08:16:05.923Z,100031.72
2023-01-13T08:18:34.363Z,100029.48
2023-01-13T08:21:04.024Z,100032.30
2023-01-13T08:23:30.787Z,100031.45
2023-01-13T08:26:02.675Z,100027.45
2023-01-13T08:28:30.631Z,100034.09
2023-01-13T08:31:02.136Z,100035.30
2023-01-13T08:33:29.860Z,100031.86
2023-01-13T08:35:57.176Z,100029.89
2023-01-13T08:38:24.565Z,100031.31
2023-01-13T08:40:51.500Z,100033.21
2023-01-13T08:43:18.503Z,100033.20
2023-01-13T08:45:45.183Z,100034.62
2023-01-13T08:48:12.038Z,100036.39
2023-01-13T08:50:38.963Z,100027.67
2023-01-13T08:53:05.613Z,100045.59
2023-01-13T08:55:32.585Z,100046.16
2023-01-13T08:58:14.145Z,100042.39
2023-01-13T09:00:42.438Z,100046.30
2023-01-13T09:03:09.297Z,100048.31
2023-01-13T09:05:36.477Z,100046.50
2023-01-13T09:08:03.402Z,100043.14
2023-01-13T09:10:30.253Z,100047.12
2023-01-13T09:13:12.315Z,100046.16
2023-01-13T09:15:41.234Z,100049.91
2023-01-13T09:18:08.219Z,100044.07
2023-01-13T09:20:34.967Z,100032.55
2023-01-13T09:23:02.463Z,100034.66
2023-01-13T09:25:29.677Z,100035.35
2023-01-13T09:27:57.259Z,100029.10
2023-01-13T09:30:24.764Z,100030.79
2023-01-13T09:33:11.359Z,100022.91
2023-01-13T09:35:38.905Z,100020.37
2023-01-13T09:38:06.422Z,100020.95
2023-01-13T09:40:33.709Z,100025.35
2023-01-13T09:43:30.836Z,100019.13
2023-01-13T09:46:42.456Z,100017.30
2023-01-13T09:49:20.298Z,100019.58
2023-01-13T09:51:58.607Z,100004.41
2023-01-13T09:54:33.084Z,100017.57
2023-01-13T09:57:00.445Z,100013.42
2023-01-13T09:59:32.032Z,100016.80
2023-01-13T10:02:18.130Z,100013.52
2023-01-13T10:05:13.436Z,100010.38
2023-01-13T10:07:54.504Z,100009.81
2023-01-13T10:10:33.239Z,100006.06
2023-01-13T10:13:16.277Z,100002.53
2023-01-13T10:15:54.548Z,100000.38
2023-01-13T10:18:25.192Z,99999.95
2023-01-13T10:21:07.384Z,100003.69
2023-01-13T10:23:51.021Z,100000.56
2023-01-13T10:26:24.625Z,99985.23
2023-01-13T10:28:53.231Z,99996.11
2023-01-13T10:31:21.616Z,99991.69
2023-01-13T10:33:48.824Z,99993.57
2023-01-13T10:36:21.138Z,99995.31
2023-01-13T10:38:50.385Z,99990.50
2023-01-13T10:41:19.949Z,99989.88
2023-01-13T10:44:03.747Z,99990.33
2023-01-13T10:46:49.331Z,99991.14
2023-01-13T10:49:32.587Z,99987.91
2023-01-13T10:52:04.270Z,99985.85
2023-01-13T10:54:31.123Z,99981.54
2023-01-13T10:57:14.978Z,99982.54
2023-01-13T10:59:42.417Z,99976.45
2023-01-13T11:02:27.946Z,99978.60
2023-01-13T11:04:55.143Z,99978.67
2023-01-13T11:08:00.667Z,99977.95
2023-01-13T11:10:32.055Z,99975.61
2023-01-13T11:13:09.346Z,99977.48
2023-01-13T11:15:58.517Z,99977.09
2023-01-13T11:18:40.746Z,99976.48
2023-01-13T11:21:41.010Z,99977.88
2023-01-13T11:24:21.799Z,99975.56
2023-01-13T11:27:04.091Z,99971.88
2023-01-13T11:29:42.903Z,99969.27
2023-01-13T11:32:18.624Z,99968.55
2023-01-13T11:34:54.671Z,99965.41
2023-01-13T11:37:32.234Z,99966.91
2023-01-13T11:40:05.571Z,99961.17
2023-01-13T11:42:38.218Z,99962.86
2023-01-13T11:45:23.744Z,99958.59
2023-01-13T11:47:54.250Z,99954.53
2023-01-13T11:50:34.174Z,99956.67
2023-01-13T11:53:11.756Z,99955.41
2023-01-13T11:55:52.941Z,99954.28
2023-01-13T11:58:50.714Z,99952.60
2023-01-13T12:01:33.674Z,99949.84
2023-01-13T12:04:08.817Z,99948.39
2023-01-13T12:06:39.687Z,99946.03
2023-01-13T12:09:25.170Z,99941.20
2023-01-13T12:12:10.337Z,99942.67
2023-01-13T12:15:15.018Z,99940.48
2023-01-13T12:18:13.243Z,99941.61
2023-01-13T12:21:15.603Z,99940.77
2023-01-13T12:24:00.520Z,99941.38
2023-01-13T12:26:31.591Z,99939.23
2023-01-13T12:29:17.796Z,99937.66
2023-01-13T12:31:48.574Z,99938.16
2023-01-13T12:34:34.417Z,99922.84
2023-01-13T12:37:47.402Z,99938.80
2023-01-13T12:40:51.145Z,99936.81
2023-01-13T12:43:51.870Z,99939.30
2023-01-13T12:46:18.609Z,99940.41
2023-01-13T12:48:45.672Z,99938.75
2023-01-13T12:51:27.672Z,99935.48
2023-01-13T12:53:55.904Z,99908.85
2023-01-13T12:56:44.309Z,99937.36
2023-01-13T12:59:18.488Z,99940.13
2023-01-13T13:01:50.511Z,99939.55
2023-01-13T13:04:43.022Z,99939.34
2023-01-13T13:07:18.628Z,99943.23
2023-01-13T13:09:51.996Z,99944.80
2023-01-13T13:12:49.624Z,99942.48
2023-01-13T13:15:22.972Z,99949.45
2023-01-13T13:17:58.847Z,99947.42
2023-01-13T13:21:04.198Z,99949.67
2023-01-13T13:23:37.947Z,99951.37
2023-01-13T13:26:25.519Z,99958.30
2023-01-13T13:29:15.136Z,99957.67
2023-01-13T13:32:02.549Z,99956.72
2023-01-13T13:34:42.484Z,99955.41
2023-01-13T13:37:25.962Z,99958.80
2023-01-13T13:40:12.359Z,99957.50
2023-01-13T13:43:14.396Z,99962.27
2023-01-13T13:46:10.173Z,99965.63
2023-01-13T13:48:37.272Z,99969.27
2023-01-13T13:51:24.623Z,99972.98
2023-01-13T13:53:52.151Z,99967.77
2023-01-13T13:56:22.557Z,99968.21
2023-01-13T13:58:50.171Z,99970.25
2023-01-13T14:01:23.779Z,99973.85
2023-01-13T14:04:17.448Z,99971.81
2023-01-13T14:07:04.506Z,99971.57
2023-01-13T14:09:43.821Z,99962.95
2023-01-13T14:12:20.848Z,99964.69
2023-01-13T14:14:48.793Z,99965.30
2023-01-13T14:17:28.623Z,99968.14
2023-01-13T14:20:09.596Z,99970.86
2023-01-13T14:22:36.695Z,99975.80
2023-01-13T14:25:30.999Z,99974.84
2023-01-13T14:28:03.267Z,99979.21
2023-01-13T14:30:30.994Z,99978.83
2023-01-13T14:32:58.801Z,99980.04
2023-01-13T14:35:25.723Z,99975.03
2023-01-13T14:38:01.089Z,99971.05
2023-01-13T14:40:48.990Z,99968.82
2023-01-13T14:43:19.372Z,99971.34
2023-01-13T14:46:06.541Z,99972.77
2023-01-13T14:48:35.519Z,99979.38
2023-01-13T14:51:06.017Z,99975.02
2023-01-13T14:53:46.806Z,99972.91
2023-01-13T14:56:35.915Z,99967.40
2023-01-13T14:59:42.519Z,99973.25
2023-01-13T15:02:24.923Z,99970.47
2023-01-13T15:04:58.263Z,99973.20
2023-01-13T15:07:27.351Z,99972.22
2023-01-13T15:09:57.990Z,99969.63
2023-01-13T15:12:40.263Z,99971.66
2023-01-13T15:15:30.072Z,99968.64
2023-01-13T15:17:57.016Z,99967.76
2023-01-13T15:20:24.704Z,99963.52
2023-01-13T15:22:51.836Z,99949.04
2023-01-13T15:25:19.640Z,99956.45
2023-01-13T15:27:51.248Z,99951.43
2023-01-13T15:30:20.671Z,99951.93
2023-01-13T15:32:47.771Z,99958.55
2023-01-13T15:35:15.808Z,99957.73
2023-01-13T15:37:44.804Z,99956.27
2023-01-13T15:40:24.888Z,99960.55
2023-01-13T15:43:10.530Z,99960.56
2023-01-13T15:45:56.429Z,99965.80
2023-01-13T15:48:25.944Z,99962.86
2023-01-13T15:50:52.893Z,99966.50
2023-01-13T15:53:19.790Z,99963.44
2023-01-13T15:55:51.797Z,99966.50
2023-01-13T15:58:20.848Z,99964.58
2023-01-13T16:00:47.736Z,99963.56
2023-01-13T16:03:16.471Z,99962.11
2023-01-13T16:05:46.191Z,99967.02
2023-01-13T16:08:21.226Z,99964.73
2023-01-13T16:10:50.211Z,99963.93
2023-01-13T16:13:20.558Z,99965.25
2023-01-13T16:15:49.338Z,99964.19
2023-01-13T16:18:23.197Z,99961.86
2023-01-13T16:20:53.028Z,99964.45
2023-01-13T16:23:19.778Z,99969.14
2023-01-13T16:25:47.248Z,99971.01
2023-01-13T16:28:21.354Z,99977.79
2023-01-13T16:30:48.257Z,99983.73
2023-01-13T16:33:15.076Z,99982.86
2023-01-13T16:36:08.732Z,99987.02
2023-01-13T16:38:29.329Z,99985.52
2023-01-13T16:40:56.943Z,99982.33
2023-01-13T16:43:23.507Z,99981.73
2023-01-13T16:45:50.291Z,99978.00
2023-01-13T16:48:19.980Z,99979.86
2023-01-13T16:50:46.883Z,99985.01
2023-01-13T16:53:13.782Z,99983.04
2023-01-13T16:55:41.771Z,99983.33
2023-01-13T16:58:20.341Z,99985.05
2023-01-13T17:00:47.723Z,99983.23
2023-01-13T17:03:15.566Z,99985.63
2023-01-13T17:05:44.368Z,99982.45
2023-01-13T17:08:16.933Z,99985.57
2023-01-13T17:10:44.853Z,99987.77
2023-01-13T17:13:16.372Z,99992.25
2023-01-13T17:15:45.540Z,99986.95
2023-01-13T17:18:12.693Z,99995.27
2023-01-13T17:20:39.925Z,99998.22
2023-01-13T17:23:06.658Z,100000.77
2023-01-13T17:25:33.348Z,100003.92
2023-01-13T17:28:00.334Z,100006.92
2023-01-13T17:30:27.181Z,99994.67
2023-01-13T17:32:53.833Z,100002.40
2023-01-13T17:35:24.208Z,100003.97
2023-01-13T17:37:52.679Z,100000.98
2023-01-13T17:40:20.101Z,100001.39
2023-01-13T17:42:47.349Z,100004.59
2023-01-13T17:45:14.778Z,100006.20
2023-01-13T17:47:41.540Z,100009.97
2023-01-13T17:50:09.129Z,100008.06
2023-01-13T17:52:36.029Z,100006.41
2023-01-13T17:55:02.610Z,100007.38
2023-01-13T17:57:29.673Z,100007.31
2023-01-13T17:59:57.985Z,100010.54
2023-01-13T18:02:26.189Z,100013.77
2023-01-13T18:04:53.270Z,100014.41
2023-01-13T18:07:20.227Z,100018.39
2023-01-13T18:09:46.925Z,100017.11
2023-01-13T18:12:14.171Z,100011.29
2023-01-13T18:14:41.281Z,100011.93
2023-01-13T18:17:09.797Z,100013.80
2023-01-13T18:19:56.331Z,100016.58
2023-01-13T18:22:43.025Z,100014.11
2023-01-13T18:25:31.522Z,100014.83
2023-01-13T18:28:04.392Z,100018.48
2023-01-13T18:30:31.362Z,100021.67
2023-01-13T18:32:58.305Z,100020.11
2023-01-13T18:35:25.056Z,100010.95
2023-01-13T18:37:52.440Z,100027.49
2023-01-13T18:40:19.348Z,100029.23
2023-01-13T18:42:56.429Z,100030.52
2023-01-13T18:45:31.888Z,100031.46
2023-01-13T18:48:01.199Z,100033.77
2023-01-13T18:50:28.834Z,100035.75
2023-01-13T18:52:56.699Z,100032.80
2023-01-13T18:55:24.439Z,100033.98
2023-01-13T18:57:53.179Z,100042.08
2023-01-13T19:00:22.497Z,100042.05
2023-01-13T19:02:51.702Z,100045.55
2023-01-13T19:05:18.634Z,100045.51
2023-01-13T19:07:50.568Z,100045.27
2023-01-13T19:10:17.841Z,100047.19
2023-01-13T19:12:44.958Z,100051.77
2023-01-13T19:15:12.252Z,100057.00
2023-01-13T19:17:39.392Z,100058.61
2023-01-13T19:20:07.967Z,100049.63
2023-01-13T19:22:35.656Z,100062.79
2023-01-13T19:25:04.388Z,100065.02
2023-01-13T19:27:32.531Z,100066.23
2023-01-13T19:30:01.522Z,100062.86
2023-01-13T19:32:30.990Z,100065.65
2023-01-13T19:34:59.293Z,100068.39
2023-01-13T19:37:29.728Z,100068.56
2023-01-13T19:39:59.498Z,100066.08
2023-01-13T19:42:45.354Z,100070.25
2023-01-13T19:45:36.549Z,100077.63
2023-01-13T19:48:05.386Z,100084.16
2023-01-13T19:50:39.246Z,100089.38
2023-01-13T19:53:17.442Z,100093.81
2023-01-13T19:55:47.815Z,100090.83
2023-01-13T19:58:14.958Z,100094.45
2023-01-13T20:00:46.852Z,100097.63
2023-01-13T20:03:14.360Z,100100.30
2023-01-13T20:05:42.547Z,100104.00
2023-01-13T20:08:10.722Z,100112.69
2023-01-13T20:10:38.071Z,100092.84
2023-01-13T20:13:04.878Z,100109.77
2023-01-13T20:15:31.908Z,100113.84
2023-01-13T20:17:59.869Z,100116.41
2023-01-13T20:20:26.878Z,100114.67
2023-01-13T20:22:53.605Z,100109.45
2023-01-13T20:25:20.681Z,100118.39
2023-01-13T20:27:48.048Z,100119.48
2023-01-13T20:30:15.765Z,100117.61
2023-01-13T20:32:44.679Z,100109.98
2023-01-13T20:35:11.466Z,100125.85
2023-01-13T20:37:40.556Z,100129.94
2023-01-13T20:40:10.550Z,100134.77
2023-01-13T20:42:49.582Z,100140.17
2023-01-13T20:45:20.180Z,100144.71
2023-01-13T20:47:47.312Z,100154.67
2023-01-13T20:50:15.111Z,100155.84
2023-01-13T20:52:42.089Z,100151.73
2023-01-13T20:55:10.066Z,100157.13
2023-01-13T20:57:36.770Z,100153.88
2023-01-13T21:00:04.593Z,100157.52
2023-01-13T21:02:32.500Z,100160.32
2023-01-13T21:04:59.471Z,100164.10
2023-01-13T21:07:27.745Z,100167.06
2023-01-13T21:09:57.179Z,100170.36
2023-01-13T21:12:42.730Z,100171.26
2023-01-13T21:15:17.747Z,100171.15
2023-01-13T21:18:06.094Z,100167.11
2023-01-13T21:20:35.286Z,100171.58
2023-01-13T21:23:03.463Z,100157.57
2023-01-13T21:25:32.686Z,100179.84
2023-01-13T21:28:07.639Z,100184.13
2023-01-13T21:30:34.995Z,100187.58
2023-01-13T21:33:03.836Z,100185.25
2023-01-13T21:35:31.177Z,100186.20
2023-01-13T21:37:58.521Z,100182.98
2023-01-13T21:40:25.925Z,100178.23
2023-01-13T21:43:11.233Z,100178.46
2023-01-13T21:45:57.315Z,100179.13
2023-01-13T21:48:24.267Z,100181.02
2023-01-13T21:50:51.090Z,100184.11
2023-01-13T21:53:17.693Z,100186.15
2023-01-13T21:55:44.438Z,100189.42
2023-01-13T21:58:14.656Z,100190.58
2023-01-13T22:00:43.801Z,100188.90
2023-01-13T22:03:13.402Z,100190.29
2023-01-13T22:05:40.736Z,100187.88
2023-01-13T22:08:07.892Z,100186.84
2023-01-13T22:10:35.211Z,100191.91
2023-01-13T22:13:22.364Z,100186.48
2023-01-13T22:15:49.396Z,100188.84
2023-01-13T22:18:17.615Z,100189.57
2023-01-13T22:20:44.991Z,100193.33
2023-01-13T22:23:11.903Z,100197.11
2023-01-13T22:25:38.729Z,100201.39
2023-01-13T22:28:08.063Z,100204.01
2023-01-13T22:30:35.109Z,100209.24
2023-01-13T22:33:01.933Z,100213.13
2023-01-13T22:35:28.603Z,100212.10
2023-01-13T22:37:55.420Z,100214.91
2023-01-13T22:40:22.371Z,100218.92
2023-01-13T22:42:49.003Z,100218.13
2023-01-13T22:45:16.014Z,100222.67
2023-01-13T22:47:43.153Z,100220.55
2023-01-13T22:50:11.984Z,100221.23
2023-01-13T22:52:39.066Z,100222.61
2023-01-13T22:55:06.564Z,100228.86
2023-01-13T22:57:36.528Z,100236.54
2023-01-13T23:00:10.054Z,100241.61
2023-01-13T23:02:37.629Z,100242.72
2023-01-13T23:05:04.761Z,100246.10
2023-01-13T23:07:31.703Z,100243.83
2023-01-13T23:09:58.307Z,100243.77
2023-01-13T23:12:24.910Z,100244.63
2023-01-13T23:14:51.924Z,100233.20
2023-01-13T23:17:18.525Z,100248.53
2023-01-13T23:19:45.111Z,100248.34
2023-01-13T23:22:12.940Z,100251.46
2023-01-13T23:24:39.599Z,100248.41
2023-01-13T23:27:06.192Z,100247.63
2023-01-13T23:29:33.304Z,100245.98
2023-01-13T23:31:59.921Z,100250.67
2023-01-13T23:34:26.560Z,100248.11
2023-01-13T23:36:53.765Z,100250.95
2023-01-13T23:39:20.318Z,100248.73
2023-01-13T23:41:46.914Z,100249.30
2023-01-13T23:44:14.110Z,100250.94
2023-01-13T23:46:40.884Z,100253.10
2023-01-13T23:49:07.579Z,100253.31
2023-01-13T23:51:34.861Z,100253.70
2023-01-13T23:54:01.706Z,100253.39
2023-01-13T23:56:30.473Z,100252.67
2023-01-13T23:58:57.801Z,100254.96
